createdAt,value
2018-09-13T00:13:19.208Z,17.8
2018-09-13T00:28:31.190Z,17.6
2018-09-13T00:43:56.163Z,17.3
2018-09-13T00:59:11.230Z,17
2018-09-13T01:14:28.147Z,16.8
2018-09-13T01:29:31.427Z,16.7
2018-09-13T01:45:01.687Z,16.4
2018-09-13T02:00:19.226Z,16.5
2018-09-13T02:15:35.847Z,16.4
2018-09-13T02:30:53.320Z,16.2
2018-09-13T02:46:01.832Z,15.9
2018-09-13T03:01:26.419Z,15.7
2018-09-13T03:16:43.774Z,15.8
2018-09-13T03:31:59.324Z,15.8
2018-09-13T03:47:16.152Z,15.9
2018-09-13T04:02:31.592Z,15.7
2018-09-13T04:17:49.330Z,15.7
2018-09-13T04:33:05.893Z,15.7
2018-09-13T04:48:22.205Z,15.5
2018-09-13T05:03:30.677Z,15.6
2018-09-13T05:18:56.406Z,15.8
2018-09-13T05:34:12.104Z,16.1
2018-09-13T05:49:29.332Z,16.4
2018-09-13T06:04:46.247Z,16.6
2018-09-13T06:20:02.473Z,16.7
2018-09-13T06:35:20.522Z,17.2
2018-09-13T06:50:37.311Z,17
2018-09-13T07:05:54.666Z,16.6
2018-09-13T07:21:03.570Z,16.9
2018-09-13T07:36:28.713Z,17.4
2018-09-13T07:51:47.028Z,17.6
2018-09-13T08:07:03.869Z,17.8
2018-09-13T08:22:21.954Z,18.2
2018-09-13T08:37:36.423Z,18.4
2018-09-13T08:52:57.007Z,18.6
2018-09-13T09:08:14.793Z,18.7
2018-09-13T09:23:33.159Z,19
2018-09-13T09:38:39.915Z,19.3
2018-09-13T09:54:09.207Z,19.3
2018-09-13T10:09:27.047Z,19.3
2018-09-13T10:24:44.870Z,19.1
2018-09-13T10:40:03.294Z,19.4
2018-09-13T10:55:15.239Z,19.4
2018-09-13T11:10:39.343Z,19.5
2018-09-13T11:25:58.281Z,19.8
2018-09-13T11:41:16.033Z,20.2
2018-09-13T11:56:19.656Z,20
2018-09-13T12:11:50.782Z,19.5
2018-09-13T12:27:11.461Z,19.1
2018-09-13T12:42:28.627Z,18.7
2018-09-13T12:57:46.313Z,18.4
2018-09-13T13:12:54.267Z,18.5
2018-09-13T13:28:22.041Z,18.5
2018-09-13T13:43:39.652Z,18.4
2018-09-13T13:58:59.171Z,18.5
2018-09-13T14:14:15.576Z,18.9
2018-09-13T14:29:29.139Z,18.9
2018-09-13T14:44:51.512Z,19.2
2018-09-13T15:00:09.494Z,19.2
2018-09-13T15:15:27.310Z,18.9
2018-09-13T15:30:33.914Z,18.9
2018-09-13T15:46:03.959Z,18.8
2018-09-13T16:01:21.280Z,18.4
2018-09-13T16:16:38.615Z,18.4
2018-09-13T16:31:56.576Z,18.2
2018-09-13T16:47:07.595Z,18.2
2018-09-13T17:02:31.704Z,18.1
2018-09-13T17:17:51.998Z,18.1
2018-09-13T17:33:07.370Z,17.9
2018-09-13T17:48:24.772Z,17.7
2018-09-13T18:03:41.505Z,17.4
2018-09-13T18:18:59.957Z,16.9
2018-09-13T18:34:16.626Z,16.8
2018-09-13T18:49:33.575Z,16.7
2018-09-13T19:04:43.311Z,16.6
2018-09-13T19:20:07.374Z,16.7
2018-09-13T19:35:24.469Z,16.8
2018-09-13T19:50:41.139Z,16.4
2018-09-13T20:05:59.146Z,16.1
2018-09-13T20:21:13.268Z,15.9
2018-09-13T20:36:31.081Z,15.7
2018-09-13T20:51:47.762Z,15.7
2018-09-13T21:07:04.392Z,15.6
2018-09-13T21:22:12.587Z,15.5
2018-09-13T21:37:37.469Z,15.8
2018-09-13T21:52:53.942Z,16.4
2018-09-13T22:08:10.825Z,15.7
2018-09-13T22:23:27.311Z,15.5
2018-09-13T22:38:41.771Z,15.3
2018-09-13T22:53:59.857Z,15
2018-09-13T23:09:15.923Z,14.9
2018-09-13T23:24:32.223Z,14.9
2018-09-13T23:39:40.153Z,14.8
2018-09-13T23:55:04.723Z,14.8
